Time;durP1;ratioP1;P1;durP2;ratioP2;P2;SDS_P1;SDS_P2;PMS_P1;PMS_P2;Temp;Humidity;BMP_temperature;BMP_pressure;BME280_temperature;BME280_humidity;BME280_pressure;Samples;Min_cycle;Max_cycle;Signal;HPM_P1;HPM_P2
2022/05/02 00:03:34;;;;;;;30.42;12.50;;;;;;;10.43;100.00;102133.78;10164542;28;20050;-64
2022/05/02 00:08:31;;;;;;;5.80;2.63;;;;;;;10.45;100.00;102134.31;10174363;28;20050;-63
2022/05/02 00:13:27;;;;;;;9.50;3.88;;;;;;;10.44;100.00;102135.41;10159161;28;20105;-64
2022/05/02 00:18:24;;;;;;;5.53;2.50;;;;;;;10.41;100.00;102122.31;10164573;28;20085;-64
2022/05/02 00:23:20;;;;;;;4.57;1.88;;;;;;;10.38;100.00;102117.41;10155495;28;20105;-64
2022/05/02 00:28:17;;;;;;;10.25;4.18;;;;;;;10.35;100.00;102115.22;10173320;28;20045;-63
2022/05/02 00:33:13;;;;;;;8.02;3.58;;;;;;;10.17;100.00;102119.41;10155614;28;20124;-65
2022/05/02 00:38:10;;;;;;;6.10;2.45;;;;;;;10.16;100.00;102126.75;10163953;28;20058;-65
2022/05/02 00:43:06;;;;;;;7.82;2.97;;;;;;;10.08;100.00;102121.91;10155995;28;20093;-63
2022/05/02 00:48:03;;;;;;;5.40;2.13;;;;;;;9.99;100.00;102108.00;10155095;28;20050;-64
2022/05/02 00:53:01;;;;;;;5.28;2.60;;;;;;;9.90;100.00;102101.47;10155564;28;20165;-64
2022/05/02 00:57:59;;;;;;;5.95;2.58;;;;;;;9.81;100.00;102094.94;10155334;28;20092;-64
2022/05/02 01:08:29;;;;;;;7.97;2.67;;;;;;;9.57;100.00;102109.22;10913037;23;20071;-65
2022/05/02 01:13:38;;;;;;;6.15;2.67;;;;;;;9.55;100.00;102107.88;10077044;28;20538;-66
2022/05/02 01:18:35;;;;;;;6.97;2.33;;;;;;;9.54;100.00;102111.69;10092252;28;20401;-66
2022/05/02 01:23:31;;;;;;;8.50;3.00;;;;;;;9.50;100.00;102116.06;10085978;28;20117;-67
2022/05/02 01:28:28;;;;;;;7.28;3.10;;;;;;;9.39;100.00;102110.63;10083592;28;20688;-65
2022/05/02 01:33:25;;;;;;;6.38;3.03;;;;;;;9.34;100.00;102110.63;10074694;28;20042;-66
2022/05/02 01:38:22;;;;;;;8.23;3.53;;;;;;;9.32;100.00;102106.53;10094775;28;20444;-65
2022/05/02 01:43:18;;;;;;;6.63;2.90;;;;;;;9.29;100.00;102113.38;10107249;28;20583;-64
2022/05/02 01:48:15;;;;;;;7.53;3.33;;;;;;;9.29;100.00;102105.19;10082634;28;20039;-64
2022/05/02 01:53:11;;;;;;;6.03;3.00;;;;;;;9.31;100.00;102103.00;10079729;28;20106;-64
2022/05/02 01:58:08;;;;;;;8.88;3.17;;;;;;;9.27;100.00;102101.91;10105826;28;20085;-66
2022/05/02 02:03:04;;;;;;;7.95;3.00;;;;;;;9.23;100.00;102106.28;10111361;28;20117;-64
2022/05/02 02:08:01;;;;;;;8.20;3.40;;;;;;;9.21;100.00;102097.53;10082922;28;20453;-64
2022/05/02 02:12:58;;;;;;;6.20;2.70;;;;;;;9.18;100.00;102103.56;10071317;28;20075;-64
2022/05/02 02:17:54;;;;;;;6.00;2.78;;;;;;;9.11;100.00;102097.56;10098233;28;20063;-64
2022/05/02 02:22:51;;;;;;;4.72;2.58;;;;;;;9.13;100.00;102092.66;10104726;28;20079;-64
2022/05/02 02:27:48;;;;;;;4.90;2.90;;;;;;;9.02;100.00;102091.84;10097236;28;20085;-67
2022/05/02 02:32:44;;;;;;;4.78;2.65;;;;;;;8.92;100.00;102095.38;10096020;28;20102;-68
2022/05/02 02:37:41;;;;;;;5.10;3.17;;;;;;;8.85;100.00;102090.19;10073604;28;20130;-68
2022/05/02 02:42:38;;;;;;;5.63;2.70;;;;;;;8.74;100.00;102083.09;10071027;28;20502;-67
2022/05/02 02:47:35;;;;;;;6.22;2.92;;;;;;;8.64;100.00;102083.91;10087161;28;20486;-66
2022/05/02 02:52:31;;;;;;;9.68;2.97;;;;;;;8.50;100.00;102077.38;10071288;28;20148;-68
2022/05/02 02:57:28;;;;;;;7.38;2.88;;;;;;;8.39;100.00;102081.13;10108032;28;20122;-68
2022/05/02 03:02:24;;;;;;;4.82;2.88;;;;;;;8.28;100.00;102084.91;10095848;28;20536;-68
2022/05/02 03:07:24;;;;;;;5.47;2.72;;;;;;;8.21;100.00;102080.56;10097402;28;20051;-68
2022/05/02 03:12:20;;;;;;;9.43;3.88;;;;;;;8.13;100.00;102066.63;10101664;28;20071;-68
2022/05/02 03:17:17;;;;;;;7.97;3.45;;;;;;;8.04;100.00;102068.22;10092877;28;20051;-68
2022/05/02 03:22:13;;;;;;;10.13;3.38;;;;;;;7.98;100.00;102064.66;10077024;28;20130;-68
2022/05/02 03:27:10;;;;;;;7.47;3.53;;;;;;;7.93;100.00;102068.19;10068738;28;20114;-68
2022/05/02 03:32:07;;;;;;;7.35;3.60;;;;;;;7.85;100.00;102065.19;10070241;28;20047;-65
2022/05/02 03:37:04;;;;;;;8.95;3.80;;;;;;;7.77;100.00;102066.47;10084302;28;20408;-64
2022/05/02 03:42:01;;;;;;;8.80;5.25;;;;;;;7.67;100.00;102063.72;10087737;28;20051;-65
2022/05/02 03:46:57;;;;;;;8.27;4.47;;;;;;;7.73;100.00;102066.22;10088287;28;20404;-67
2022/05/02 03:51:54;;;;;;;8.60;3.88;;;;;;;7.75;100.00;102066.78;10106848;28;20142;-66
2022/05/02 03:56:50;;;;;;;8.82;4.43;;;;;;;7.76;100.00;102067.59;10080370;28;20101;-65
2022/05/02 04:01:47;;;;;;;7.45;3.97;;;;;;;7.77;100.00;102075.50;10086404;28;20082;-65
2022/05/02 04:06:43;;;;;;;8.88;4.43;;;;;;;7.77;100.00;102074.66;10086976;28;20050;-65
2022/05/02 04:11:41;;;;;;;7.70;4.28;;;;;;;7.84;100.00;102068.97;10074272;28;20085;-65
2022/05/02 04:16:37;;;;;;;8.30;4.47;;;;;;;7.85;100.00;102070.63;10083353;28;20101;-66
2022/05/02 04:21:34;;;;;;;12.43;4.78;;;;;;;7.83;100.00;102067.34;10077350;28;20674;-65
2022/05/02 04:26:30;;;;;;;7.65;4.18;;;;;;;7.78;100.00;102071.69;10065411;28;20134;-65
2022/05/02 04:31:27;;;;;;;10.55;4.82;;;;;;;7.78;100.00;102070.88;10109012;28;20488;-66
2022/05/02 04:36:24;;;;;;;6.93;4.13;;;;;;;7.76;100.00;102073.84;10088214;28;20505;-65
2022/05/02 04:41:20;;;;;;;7.05;4.10;;;;;;;7.73;100.00;102074.38;10098730;28;20046;-66
2022/05/02 04:46:20;;;;;;;6.57;3.85;;;;;;;7.68;100.00;102085.25;10083222;28;20047;-67
2022/05/02 04:51:16;;;;;;;8.57;4.50;;;;;;;7.71;100.00;102081.19;10086181;28;20546;-66
2022/05/02 04:56:13;;;;;;;10.00;4.07;;;;;;;7.70;100.00;102074.88;10085875;28;20054;-66
2022/05/02 05:01:10;;;;;;;8.13;4.07;;;;;;;7.70;100.00;102082.25;10073818;28;20047;-66
2022/05/02 05:06:06;;;;;;;7.88;4.18;;;;;;;7.66;100.00;102079.25;10081007;28;20054;-66
2022/05/02 05:11:31;;;;;;;9.43;4.50;;;;;;;7.73;100.00;102084.47;10079274;28;20082;-66
2022/05/02 05:16:41;;;;;;;11.18;4.43;;;;;;;7.79;100.00;102084.19;10072366;28;20075;-65
2022/05/02 05:21:40;;;;;;;8.43;3.70;;;;;;;7.91;100.00;102069.53;10074848;28;20106;-66
2022/05/02 05:26:58;;;;;;;7.95;4.10;;;;;;;8.01;100.00;102070.41;10090402;28;20074;-66
2022/05/02 05:32:12;;;;;;;7.55;4.22;;;;;;;8.05;100.00;102070.66;10103983;28;20052;-66
2022/05/02 05:37:41;;;;;;;7.63;4.18;;;;;;;8.12;100.00;102071.25;10073952;28;20082;-66
2022/05/02 05:43:00;;;;;;;8.60;4.72;;;;;;;8.26;100.00;102065.28;10074368;28;20047;-66
2022/05/02 05:48:11;;;;;;;8.77;3.63;;;;;;;8.40;100.00;102063.69;10073359;28;20468;-66
2022/05/02 05:53:38;;;;;;;7.40;3.97;;;;;;;8.53;100.00;102065.91;10073579;28;20134;-66
2022/05/02 05:59:13;;;;;;;10.73;4.63;;;;;;;8.64;100.00;102073.00;10087199;28;20047;-66
2022/05/02 06:04:11;;;;;;;8.10;4.32;;;;;;;8.82;100.00;102062.66;10073730;28;20105;-66
2022/05/02 06:09:10;;;;;;;7.40;4.30;;;;;;;8.95;100.00;102066.75;10072411;28;20098;-66
2022/05/02 06:14:08;;;;;;;8.23;4.53;;;;;;;9.04;100.00;102071.38;10073426;28;20082;-66
2022/05/02 06:19:10;;;;;;;11.73;4.50;;;;;;;9.09;100.00;102069.72;10072488;28;20973;-65
2022/05/02 06:24:10;;;;;;;7.67;4.23;;;;;;;9.21;100.00;102068.38;10071770;28;20070;-66
2022/05/02 06:29:11;;;;;;;12.15;5.03;;;;;;;9.36;100.00;102062.03;10071831;28;20111;-66
2022/05/02 06:34:08;;;;;;;8.23;4.45;;;;;;;9.45;100.00;102063.13;10074303;28;20576;-66
2022/05/02 06:39:18;;;;;;;10.68;3.95;;;;;;;9.46;100.00;102062.00;10071431;28;20089;-66
2022/05/02 06:44:42;;;;;;;10.25;3.40;;;;;;;9.50;100.00;102073.19;10072151;28;20078;-66
2022/05/02 06:49:43;;;;;;;7.97;3.65;;;;;;;9.65;100.00;102064.97;10098040;28;20043;-66
2022/05/02 06:54:52;;;;;;;8.27;3.50;;;;;;;9.77;100.00;102061.94;10075756;28;20086;-66
2022/05/02 07:00:03;;;;;;;7.97;2.90;;;;;;;9.89;100.00;102065.13;10070974;28;20055;-66
2022/05/02 07:05:06;;;;;;;4.75;2.55;;;;;;;10.03;100.00;102059.06;10071865;28;20051;-66
2022/05/02 07:10:08;;;;;;;;;;;;;;;10.19;100.00;102057.88;10071261;28;20635;-67
2022/05/02 07:15:12;;;;;;;6.28;2.20;;;;;;;10.26;100.00;102058.38;10078978;28;19969;-66
2022/05/02 07:20:35;;;;;;;6.65;1.60;;;;;;;10.39;100.00;102061.63;10055075;28;20458;-66
2022/05/02 07:25:31;;;;;;;7.50;2.30;;;;;;;10.52;100.00;102058.25;10077642;28;20058;-66
2022/05/02 07:30:30;;;;;;;3.40;1.63;;;;;;;10.61;93.29;102056.53;10110656;28;20583;-67
2022/05/02 07:35:28;;;;;;;4.68;1.60;;;;;;;10.77;90.25;102061.88;10096144;28;20542;-67
2022/05/02 07:40:25;;;;;;;3.40;1.42;;;;;;;10.94;90.79;102056.81;10079125;28;20047;-66
2022/05/02 07:45:27;;;;;;;8.75;1.88;;;;;;;11.04;86.07;102051.22;10088567;28;20074;-66
2022/05/02 07:50:27;;;;;;;5.97;2.30;;;;;;;11.16;84.02;102054.41;10118047;28;20070;-66
2022/05/02 07:55:24;;;;;;;4.28;1.60;;;;;;;11.27;84.39;102054.31;10101742;28;20044;-67
2022/05/02 08:00:22;;;;;;;4.50;2.03;;;;;;;11.44;84.79;102054.69;10078250;28;20059;-66
2022/05/02 08:05:21;;;;;;;8.23;2.50;;;;;;;11.54;77.16;102060.03;10085800;28;20139;-66
2022/05/02 08:10:44;;;;;;;5.15;2.55;;;;;;;11.64;78.23;102052.78;10114912;28;20105;-66
2022/05/02 08:15:50;;;;;;;4.78;1.98;;;;;;;11.76;77.23;102056.72;10100600;28;20456;-67
2022/05/02 08:21:01;;;;;;;7.75;2.88;;;;;;;11.95;74.08;102054.09;10088408;28;20394;-66
2022/05/02 08:31:53;;;;;;;6.00;2.80;;;;;;;12.28;65.09;102043.19;10081940;28;20063;-67
2022/05/02 08:37:09;;;;;;;9.65;3.78;;;;;;;12.42;63.15;102043.28;10075030;28;20505;-67
2022/05/02 08:42:28;;;;;;;10.23;4.90;;;;;;;12.55;59.14;102044.44;10079338;28;20051;-66
2022/05/02 08:47:53;;;;;;;7.20;4.25;;;;;;;12.71;55.54;102040.31;10075498;28;20102;-66
2022/05/02 08:53:23;;;;;;;8.93;3.78;;;;;;;12.85;58.25;102027.44;10076939;28;20055;-67
2022/05/02 08:58:49;;;;;;;8.50;3.47;;;;;;;13.03;59.38;102023.00;10075125;28;20039;-67
2022/05/02 09:03:59;;;;;;;8.20;4.22;;;;;;;13.24;59.75;102017.16;10075783;28;20089;-66
2022/05/02 09:09:20;;;;;;;9.65;4.20;;;;;;;13.46;65.95;102000.00;10075138;28;20063;-67
2022/05/02 09:14:41;;;;;;;9.50;4.82;;;;;;;13.65;57.48;102002.63;10075259;28;20074;-67
2022/05/02 09:19:56;;;;;;;9.85;4.80;;;;;;;13.87;61.01;101996.34;10075021;28;20075;-67
2022/05/02 09:25:10;;;;;;;8.40;3.97;;;;;;;13.94;53.47;102002.25;10074159;28;20090;-67
2022/05/02 09:30:55;;;;;;;12.25;4.90;;;;;;;14.03;51.73;101989.38;10075218;28;20480;-66
2022/05/02 09:35:54;;;;;;;6.32;4.00;;;;;;;14.04;51.24;101985.53;10074226;28;20477;-66
2022/05/02 09:40:59;;;;;;;7.07;4.85;;;;;;;14.63;53.58;101984.69;10074612;28;20051;-67
2022/05/02 09:52:03;;;;;;;8.35;4.70;;;;;;;14.78;49.51;101975.22;10098284;28;20098;-66
2022/05/02 09:57:01;;;;;;;8.85;5.15;;;;;;;14.88;47.46;101970.25;10097146;28;20105;-66
2022/05/02 10:02:08;;;;;;;9.13;5.32;;;;;;;15.97;45.99;101966.03;10074125;28;20059;-66
2022/05/02 10:07:09;;;;;;;9.48;5.15;;;;;;;17.24;46.03;101957.28;10072504;28;20074;-66
2022/05/02 10:13:02;;;;;;;8.38;4.03;;;;;;;17.94;41.21;101963.22;10073928;28;20047;-66
2022/05/02 10:18:16;;;;;;;8.18;4.43;;;;;;;18.89;40.90;101957.88;10080688;28;20071;-66
2022/05/02 10:23:45;;;;;;;9.43;4.28;;;;;;;19.50;38.21;101948.78;10073911;28;20078;-66
2022/05/02 10:28:56;;;;;;;10.02;4.68;;;;;;;19.97;37.49;101940.69;10097109;28;20101;-66
2022/05/02 10:33:54;;;;;;;9.60;4.30;;;;;;;19.95;34.51;101945.78;10102523;28;20094;-65
2022/05/02 10:38:54;;;;;;;9.20;4.13;;;;;;;20.45;34.81;101934.47;10103094;28;20089;-65
2022/05/02 10:44:00;;;;;;;8.57;4.85;;;;;;;20.79;32.27;101928.25;10101357;28;20047;-67
2022/05/02 10:49:12;;;;;;;7.20;3.72;;;;;;;21.03;33.13;101920.88;10110910;28;20539;-65
2022/05/02 10:54:38;;;;;;;8.85;4.28;;;;;;;20.64;32.25;101917.94;10095337;28;20133;-65
2022/05/02 10:59:44;;;;;;;6.30;4.43;;;;;;;19.43;34.17;101920.81;10076650;28;20133;-67
2022/05/02 11:05:02;;;;;;;8.82;4.63;;;;;;;19.43;33.47;101916.06;10079374;28;20051;-68
2022/05/02 11:10:09;;;;;;;6.65;4.93;;;;;;;19.12;34.59;101920.28;10114144;28;20479;-67
2022/05/02 11:15:23;;;;;;;7.90;4.75;;;;;;;18.14;36.77;101911.75;10110749;28;20082;-65
2022/05/02 11:20:41;;;;;;;6.30;4.63;;;;;;;18.32;37.37;101911.59;10084278;28;20047;-65
2022/05/02 11:26:17;;;;;;;6.85;4.53;;;;;;;19.65;35.48;101900.06;10098022;28;20089;-68
2022/05/02 11:31:34;;;;;;;10.10;5.22;;;;;;;19.60;34.99;101898.34;10101805;28;20486;-65
2022/05/02 11:36:44;;;;;;;10.40;5.30;;;;;;;19.40;35.45;101899.31;10102823;28;20468;-65
2022/05/02 11:41:43;;;;;;;8.23;5.38;;;;;;;18.26;36.74;101913.75;10114804;28;20215;-65
2022/05/02 11:46:57;;;;;;;7.72;5.28;;;;;;;17.77;37.33;101903.25;10082475;28;20399;-65
2022/05/02 11:51:56;;;;;;;8.77;5.10;;;;;;;18.35;38.65;101902.59;10084231;28;20055;-66
2022/05/02 11:56:58;;;;;;;10.88;4.90;;;;;;;18.09;37.73;101892.59;10096965;28;20059;-65
2022/05/02 12:02:03;;;;;;;7.72;4.43;;;;;;;17.73;38.47;101879.38;10083962;28;20073;-66
2022/05/02 12:07:02;;;;;;;7.68;4.60;;;;;;;17.64;38.72;101887.78;10101547;28;20051;-65
2022/05/02 12:12:04;;;;;;;8.38;4.63;;;;;;;17.44;39.38;101879.13;10121273;28;20845;-66
2022/05/02 12:17:11;;;;;;;10.40;5.82;;;;;;;16.81;39.89;101878.19;10104685;28;20078;-66
2022/05/02 12:22:16;;;;;;;7.95;5.22;;;;;;;17.98;39.24;101869.25;10107553;28;20138;-66
2022/05/02 12:27:14;;;;;;;6.40;4.90;;;;;;;18.15;38.02;101855.25;10092253;28;20517;-66
2022/05/02 12:32:11;;;;;;;9.88;5.20;;;;;;;18.78;39.03;101862.53;10076985;28;20573;-66
2022/05/02 12:37:23;;;;;;;11.10;4.63;;;;;;;20.12;36.31;101852.25;10092140;28;20538;-66
2022/05/02 12:42:24;;;;;;;9.02;4.40;;;;;;;20.68;34.76;101840.19;10076965;28;20544;-66
2022/05/02 12:47:23;;;;;;;6.55;4.53;;;;;;;20.93;34.61;101836.06;10097711;28;20744;-66
2022/05/02 12:52:20;;;;;;;8.38;4.78;;;;;;;19.99;34.78;101842.38;10079546;28;20425;-66
2022/05/02 13:02:39;;;;;;;8.23;4.70;;;;;;;18.72;38.35;101828.66;10076380;28;20047;-65
2022/05/02 13:07:44;;;;;;;10.70;5.05;;;;;;;18.59;38.38;101822.34;10074968;28;20677;-65
2022/05/02 13:13:03;;;;;;;7.18;5.00;;;;;;;18.13;39.82;101818.81;10075949;28;20591;-66
2022/05/02 13:18:06;;;;;;;9.57;5.00;;;;;;;18.19;39.29;101800.81;10068290;28;20082;-65
2022/05/02 13:23:19;;;;;;;9.27;5.03;;;;;;;18.55;40.28;101799.25;10077740;28;20081;-66
2022/05/02 13:28:23;;;;;;;6.82;4.53;;;;;;;18.46;39.72;101795.78;10105584;28;20133;-66
2022/05/02 13:33:30;;;;;;;10.50;4.95;;;;;;;18.31;41.44;101783.44;10105689;28;20091;-66
2022/05/02 13:38:32;;;;;;;9.55;5.00;;;;;;;18.58;38.83;101793.00;10104973;28;20100;-66
2022/05/02 13:43:37;;;;;;;8.57;5.50;;;;;;;18.65;40.66;101801.53;10100080;28;20191;-67
2022/05/02 13:48:55;;;;;;;8.25;5.15;;;;;;;18.64;39.69;101780.56;10074467;28;20493;-67
2022/05/02 13:54:03;;;;;;;7.65;4.75;;;;;;;18.38;39.34;101777.31;10075635;28;20102;-67
2022/05/02 13:59:04;;;;;;;7.80;5.05;;;;;;;19.09;39.99;101779.56;10105232;28;20053;-65
2022/05/02 14:04:15;;;;;;;9.25;4.95;;;;;;;19.74;39.02;101764.81;10086121;28;20039;-66
2022/05/02 14:09:30;;;;;;;8.55;4.60;;;;;;;18.64;38.61;101774.22;10104934;28;20097;-66
2022/05/02 14:14:29;;;;;;;5.90;4.07;;;;;;;18.91;40.16;101756.06;10074430;28;20094;-66
2022/05/02 14:19:25;;;;;;;9.77;4.70;;;;;;;18.50;39.84;101763.47;10102818;28;20047;-65
2022/05/02 14:24:22;;;;;;;8.75;4.38;;;;;;;18.51;40.38;101754.00;10108190;28;20049;-65
2022/05/02 14:29:19;;;;;;;8.48;4.65;;;;;;;18.28;40.58;101748.13;10103365;28;20086;-66
2022/05/02 14:34:16;;;;;;;9.70;4.97;;;;;;;18.21;40.08;101745.13;10099190;28;20428;-66
2022/05/02 14:39:14;;;;;;;10.95;5.63;;;;;;;18.21;40.69;101751.47;10103020;28;20078;-66
2022/05/02 14:44:12;;;;;;;6.60;4.03;;;;;;;18.50;41.25;101735.78;10076876;28;20039;-66
2022/05/02 14:49:10;;;;;;;10.25;5.45;;;;;;;18.48;40.77;101729.78;10071311;28;20704;-65
2022/05/02 14:54:08;;;;;;;6.95;4.25;;;;;;;18.16;41.38;101748.91;10079581;28;20476;-65
2022/05/02 14:59:08;;;;;;;8.90;4.18;;;;;;;18.48;43.55;101722.28;10098523;28;20585;-65
2022/05/02 15:04:09;;;;;;;9.55;4.05;;;;;;;18.47;41.28;101725.38;10080208;28;20078;-65
2022/05/02 15:09:22;;;;;;;7.65;4.10;;;;;;;18.32;42.32;101723.34;10085907;28;20094;-66
2022/05/02 15:14:40;;;;;;;6.32;3.90;;;;;;;17.80;41.95;101730.25;10092259;28;20090;-64
2022/05/02 15:20:01;;;;;;;9.93;3.58;;;;;;;17.78;41.60;101722.31;10087911;28;20071;-64
2022/05/02 15:25:09;;;;;;;5.75;3.10;;;;;;;17.78;40.89;101722.31;10088294;28;20756;-66
2022/05/02 15:40:54;;;;;;;5.45;2.55;;;;;;;17.74;39.53;101715.84;10097514;28;20505;-66
2022/05/02 15:45:57;;;;;;;6.60;2.63;;;;;;;17.79;39.71;101712.88;10098883;28;20050;-66
2022/05/02 15:51:21;;;;;;;5.13;2.20;;;;;;;17.79;38.56;101712.88;10086852;28;20054;-66
2022/05/02 15:56:22;;;;;;;6.65;2.72;;;;;;;18.13;38.97;101705.34;10085335;28;20055;-66
2022/05/02 16:01:52;;;;;;;3.90;2.00;;;;;;;18.33;38.66;101702.78;10096203;28;20470;-67
2022/05/02 16:07:00;;;;;;;5.25;2.55;;;;;;;18.50;38.16;101697.81;10092789;28;20043;-66
2022/05/02 16:12:07;;;;;;;5.90;2.30;;;;;;;19.30;37.42;101706.50;10091795;28;20493;-65
2022/05/02 16:17:06;;;;;;;8.23;2.45;;;;;;;19.32;35.36;101701.41;10085859;28;20094;-65
2022/05/02 16:22:03;;;;;;;4.13;2.33;;;;;;;20.40;33.87;101688.34;10088485;28;20051;-65
2022/05/02 16:27:02;;;;;;;4.47;2.47;;;;;;;21.17;32.63;101693.19;10079900;28;20039;-65
2022/05/02 16:32:02;;;;;;;7.07;2.40;;;;;;;21.33;32.17;101692.31;10087014;28;20679;-65
2022/05/02 16:36:59;;;;;;;4.38;2.15;;;;;;;21.64;31.34;101691.31;10084515;28;20504;-66
2022/05/02 16:41:57;;;;;;;3.85;2.05;;;;;;;22.50;30.26;101675.19;10086107;28;20098;-67
2022/05/02 16:47:02;;;;;;;4.50;2.10;;;;;;;22.58;29.57;101688.03;10087893;28;20055;-66
2022/05/02 16:52:05;;;;;;;6.57;3.45;;;;;;;22.42;28.96;101679.88;10091578;28;20059;-67
2022/05/02 16:57:02;;;;;;;7.75;4.00;;;;;;;22.01;28.55;101680.41;10079607;28;20043;-65
2022/05/02 17:02:00;;;;;;;4.78;1.90;;;;;;;20.98;29.42;101682.88;10076801;28;20043;-65
2022/05/02 17:07:00;;;;;;;3.58;1.67;;;;;;;20.69;28.63;101681.47;10086087;28;20074;-65
2022/05/02 17:12:02;;;;;;;7.15;2.30;;;;;;;20.09;25.59;101691.94;10083589;28;20528;-64
2022/05/02 17:16:59;;;;;;;4.78;2.33;;;;;;;20.15;25.26;101683.00;10077086;28;20063;-65
2022/05/02 17:22:05;;;;;;;1.83;0.85;;;;;;;19.55;24.84;101688.59;10077210;28;20051;-64
2022/05/02 17:27:09;;;;;;;2.50;0.98;;;;;;;19.68;25.34;101674.63;10089019;28;20078;-66
2022/05/02 17:32:08;;;;;;;1.77;0.68;;;;;;;19.20;26.59;101668.22;10083020;28;20130;-65
2022/05/02 17:37:08;;;;;;;2.42;0.90;;;;;;;19.02;26.53;101674.06;10087000;28;20106;-66
2022/05/02 17:42:09;;;;;;;3.90;1.58;;;;;;;18.65;27.08;101670.56;10081378;28;20046;-66
2022/05/02 17:47:09;;;;;;;3.05;0.80;;;;;;;17.85;28.79;101672.81;10077768;28;20493;-65
2022/05/02 17:52:10;;;;;;;6.28;0.90;;;;;;;17.51;30.15;101667.66;10085832;28;20054;-65
2022/05/02 17:57:08;;;;;;;4.65;1.80;;;;;;;17.31;32.29;101677.59;10078115;28;20059;-66
2022/05/02 18:02:06;;;;;;;4.30;1.20;;;;;;;16.85;35.37;101685.81;10075500;28;20142;-66
2022/05/02 18:07:16;;;;;;;1.98;0.65;;;;;;;16.70;37.03;101678.09;10059483;28;20528;-65
2022/05/02 18:12:14;;;;;;;3.92;1.75;;;;;;;16.37;38.17;101687.88;10067199;28;20133;-63
2022/05/02 18:17:21;;;;;;;5.07;0.90;;;;;;;15.97;38.93;101684.69;10073828;28;20078;-65
2022/05/02 18:22:23;;;;;;;4.93;0.77;;;;;;;15.88;39.39;101692.19;10074973;28;20051;-65
2022/05/02 18:27:25;;;;;;;4.00;1.00;;;;;;;15.63;40.46;101697.41;10092276;28;20057;-65
2022/05/02 18:32:24;;;;;;;4.07;0.68;;;;;;;15.50;40.64;101693.72;10100238;28;20823;-65
2022/05/02 18:37:22;;;;;;;5.40;1.52;;;;;;;15.22;41.08;101704.28;10075338;28;20074;-65
2022/05/02 18:42:26;;;;;;;6.30;2.10;;;;;;;15.19;40.35;101695.88;10083531;28;20062;-65
2022/05/02 18:53:12;;;;;;;2.80;1.10;;;;;;;14.80;40.71;101714.16;10075294;28;20070;-66
2022/05/02 18:58:09;;;;;;;5.50;2.05;;;;;;;14.64;40.61;101711.06;10074408;28;20114;-65
2022/05/02 19:03:10;;;;;;;3.40;0.70;;;;;;;14.36;40.22;101711.28;10084235;28;20055;-66
2022/05/02 19:08:15;;;;;;;2.13;0.70;;;;;;;14.35;40.38;101715.19;10086254;28;20504;-66
2022/05/02 19:13:15;;;;;;;5.57;0.70;;;;;;;14.26;40.31;101717.91;10106214;28;20050;-66
2022/05/02 19:18:11;;;;;;;4.05;0.75;;;;;;;14.12;40.01;101727.41;10097551;28;20421;-66
2022/05/02 19:23:23;;;;;;;1.60;0.50;;;;;;;13.92;40.22;101724.06;10095808;28;20078;-66
2022/05/02 19:28:21;;;;;;;2.85;0.60;;;;;;;13.73;39.31;101731.72;10100307;28;20043;-66
2022/05/02 19:33:22;;;;;;;1.75;0.50;;;;;;;13.68;40.10;101733.47;10110568;28;20476;-66
2022/05/02 19:43:41;;;;;;;2.90;0.73;;;;;;;13.43;41.10;101725.88;10098432;28;20138;-67
2022/05/02 19:48:48;;;;;;;5.82;1.17;;;;;;;13.42;40.31;101732.50;10090516;28;20053;-66
2022/05/02 19:53:44;;;;;;;4.80;0.47;;;;;;;13.40;39.78;101734.75;10100573;28;20050;-66
2022/05/02 19:58:41;;;;;;;2.13;0.60;;;;;;;13.10;40.27;101739.81;10095451;28;20935;-68
2022/05/02 20:03:39;;;;;;;2.00;0.50;;;;;;;12.98;40.67;101736.81;10097120;28;20086;-70
2022/05/02 20:08:40;;;;;;;2.85;0.60;;;;;;;12.88;40.75;101742.50;10093281;28;20810;-70
2022/05/02 20:13:36;;;;;;;2.28;0.57;;;;;;;12.74;41.81;101731.53;10081710;28;20059;-70
2022/05/02 20:18:33;;;;;;;1.58;0.43;;;;;;;12.61;41.98;101741.44;10086261;28;20047;-70
2022/05/02 20:23:30;;;;;;;3.58;0.77;;;;;;;12.45;42.74;101738.19;10089899;28;20495;-69
2022/05/02 20:28:26;;;;;;;4.22;0.50;;;;;;;12.23;43.60;101747.16;10088392;28;20425;-68
2022/05/02 20:38:40;;;;;;;1.92;0.50;;;;;;;12.11;45.74;101741.31;10099729;28;20464;-64
2022/05/02 20:43:53;;;;;;;5.55;0.85;;;;;;;11.99;46.24;101741.81;10092845;28;20470;-66
2022/05/02 20:48:55;;;;;;;3.17;0.47;;;;;;;11.92;47.05;101747.69;10110401;28;20101;-66
2022/05/02 20:53:56;;;;;;;2.88;0.80;;;;;;;11.93;47.54;101749.34;10103769;28;20125;-66
2022/05/02 20:58:54;;;;;;;2.22;0.55;;;;;;;11.97;46.19;101744.06;10102401;28;20126;-66
2022/05/02 21:03:51;;;;;;;1.88;0.60;;;;;;;11.90;46.90;101749.91;10105159;28;20393;-65
2022/05/02 21:08:48;;;;;;;2.03;0.68;;;;;;;11.55;48.90;101749.38;10113751;28;20117;-66
2022/05/02 21:13:58;;;;;;;5.60;1.50;;;;;;;11.50;50.48;101746.75;10113802;28;20058;-64
2022/05/02 21:19:13;;;;;;;2.92;0.55;;;;;;;11.27;52.84;101758.63;10113385;28;20737;-65
2022/05/02 21:24:30;;;;;;;3.08;0.70;;;;;;;11.19;55.48;101753.81;10111029;28;20051;-64
2022/05/02 21:29:53;;;;;;;4.35;0.70;;;;;;;11.08;55.90;101762.16;10110679;28;20086;-64
2022/05/02 21:35:01;;;;;;;7.20;0.73;;;;;;;11.16;56.21;101758.78;10113415;28;20074;-64
2022/05/02 21:40:04;;;;;;;2.00;0.50;;;;;;;11.14;57.75;101750.03;10107179;28;20074;-65
2022/05/02 21:45:02;;;;;;;4.18;0.82;;;;;;;11.08;59.84;101756.69;10086748;28;20589;-66
2022/05/02 21:49:59;;;;;;;1.95;0.60;;;;;;;11.02;63.17;101751.59;10112797;28;20086;-66
2022/05/02 21:54:55;;;;;;;3.00;0.73;;;;;;;10.86;68.98;101764.66;10111342;28;20096;-65
2022/05/02 21:59:52;;;;;;;2.83;1.10;;;;;;;10.65;76.94;101748.53;10111302;28;20114;-65
2022/05/02 22:04:48;;;;;;;3.15;0.98;;;;;;;10.59;81.83;101755.16;10083143;28;20054;-65
2022/05/02 22:09:45;;;;;;;3.45;0.90;;;;;;;10.51;83.84;101759.38;10098880;28;20502;-65
2022/05/02 22:14:42;;;;;;;4.28;0.98;;;;;;;10.55;87.37;101762.31;10099879;28;20758;-65
2022/05/02 22:19:39;;;;;;;4.05;1.10;;;;;;;10.57;88.42;101757.38;10097503;28;20094;-66
2022/05/02 22:24:35;;;;;;;4.13;0.90;;;;;;;10.60;89.97;101762.25;10095869;28;20481;-66
2022/05/02 22:29:32;;;;;;;6.88;1.50;;;;;;;10.56;91.61;101766.69;10088131;28;20043;-65
2022/05/02 22:34:28;;;;;;;3.63;1.27;;;;;;;10.33;94.30;101765.59;10109861;28;20126;-66
2022/05/02 22:39:25;;;;;;;4.25;0.90;;;;;;;10.25;94.28;101766.19;10106490;28;20106;-66
2022/05/02 22:44:21;;;;;;;4.38;1.10;;;;;;;10.06;95.77;101760.66;10102755;28;20043;-66
2022/05/02 22:49:18;;;;;;;3.28;1.17;;;;;;;10.00;96.17;101753.59;10107046;28;20051;-66
2022/05/02 22:54:14;;;;;;;3.83;1.10;;;;;;;9.98;96.88;101750.34;10110605;28;20077;-66
2022/05/02 22:59:14;;;;;;;3.65;1.45;;;;;;;10.18;92.89;101752.88;10106292;28;20134;-66
2022/05/02 23:04:37;;;;;;;2.70;1.00;;;;;;;10.02;93.20;101756.84;10107063;28;20073;-66
2022/05/02 23:09:35;;;;;;;2.88;1.10;;;;;;;9.87;93.05;101750.44;10102653;28;20075;-66
2022/05/02 23:14:34;;;;;;;3.72;1.30;;;;;;;9.75;94.69;101747.28;10091369;28;20093;-65
2022/05/02 23:19:32;;;;;;;4.70;1.38;;;;;;;9.62;97.67;101742.47;10093318;28;20039;-66
2022/05/02 23:24:29;;;;;;;2.90;1.30;;;;;;;9.55;99.27;101752.91;10076381;28;20089;-66
2022/05/02 23:29:25;;;;;;;3.20;1.30;;;;;;;9.55;100.00;101752.91;10075169;28;20808;-66
2022/05/02 23:34:29;;;;;;;5.88;1.50;;;;;;;9.52;100.00;101739.84;10076555;28;20063;-66
2022/05/02 23:39:53;;;;;;;4.20;1.60;;;;;;;9.46;100.00;101744.53;10082835;28;20075;-66
2022/05/02 23:45:01;;;;;;;4.40;2.17;;;;;;;9.30;100.00;101735.63;10071420;28;20062;-66
2022/05/02 23:50:06;;;;;;;3.25;1.33;;;;;;;9.32;100.00;101727.16;10085572;28;20493;-66
2022/05/02 23:55:27;;;;;;;5.28;1.70;;;;;;;9.10;100.00;101720.22;10097591;28;20604;-67
